Hauptseite
METAR-TAF:

METAR-TAF

Flughäfen :

Chièvres, Belgien

Militärflugplatz Chièvres

Breite: 50-34N, Länge: 003-50E, Höhe: 60 m

Beobachtung

Neuester Wetterbericht von vor 36 Minuten, um 09:25 UTC
Wind 14 kt aus Ost
Temperatur -2°C
Luftfeuchtigkeit 46%
Luftdruck 1027 hPa
Sichtweite 10 km oder mehr

METAR: EBCV 250925Z AUTO 08014KT 9999 NCD M02/M12 Q1027 BLU

Zeit: 11:01 (10:01 UTC)

Prognose

Neuester Wetterbericht von vor 1 Stunde und 20 Minuten, um 08:41 UTC
Gültige Prognose vom 25 um 10 UTC bis 25 um 19 UTC
Wind 11 kt aus Nordost
Sichtweite 10 km oder mehr
Himmel klar
Zeitweise
vom 25 um 16 UTC bis 25 um 19 UTC
Aufgelockert bewölkt in der Höhe von 10000 ft

TAF: EBCV 250841Z 2510/2519 05011KT 9999 SKC TEMPO 2516/2519 SCT100 BY EBWM

Wetterbeobachtungen und Prognosen von mehr als 4000 Flughäfen (METAR und TAF Bericht).

Die verfügbaren Stationen werden durch gelbe und rote Markierungen auf der Karte dargestellt.

Führen Sie die Maus auf sie, um den Namen der Station zu sehen.

Darauf klicken, um die Beobachtung von Wetterbeobachtungen und Prognosen zu sehen.

Um die Karte zu ändern : klicken Sie auf den grünen Tasten mit einem schwarzen Kreuz Zum Vergrößern, auf den grünen Button mit einem Gedankenstrich zu verkleinern, oder auf die grünen Pfeile für benachbarte Karten.


METAR-TAF: